Time;durP1;ratioP1;P1;durP2;ratioP2;P2;SDS_P1;SDS_P2;PMS_P1;PMS_P2;Temp;Humidity;BMP_temperature;BMP_pressure;BME280_temperature;BME280_humidity;BME280_pressure;Samples;Min_cycle;Max_cycle;Signal;HPM_P1;HPM_P2
2021/06/29 00:01:07;;;;;;;2.50;2.30;;;20.60;99.90;;;;;;4902657;29;20412;-77
2021/06/29 00:03:32;;;;;;;2.88;2.67;;;20.50;99.90;;;;;;4868645;29;20412;-79
2021/06/29 00:05:58;;;;;;;2.97;2.67;;;20.50;99.90;;;;;;4894066;29;20822;-79
2021/06/29 00:08:25;;;;;;;2.65;2.45;;;20.50;99.90;;;;;;4899288;29;20430;-85
2021/06/29 00:10:51;;;;;;;2.65;2.45;;;20.40;99.90;;;;;;4897129;29;20706;-77
2021/06/29 00:13:18;;;;;;;2.60;2.40;;;20.40;99.90;;;;;;4869918;29;20923;-79
2021/06/29 00:15:44;;;;;;;2.60;2.40;;;20.30;99.90;;;;;;4895286;29;20487;-81
2021/06/29 00:18:09;;;;;;;2.63;2.30;;;20.20;99.90;;;;;;4872358;29;21048;-78
2021/06/29 00:20:35;;;;;;;2.70;2.50;;;20.10;99.90;;;;;;4899696;29;20502;-77
2021/06/29 00:23:01;;;;;;;2.53;2.33;;;20.10;99.90;;;;;;4889822;29;20405;-81
2021/06/29 00:25:27;;;;;;;2.67;2.47;;;20.10;99.90;;;;;;4879411;29;20423;-79
2021/06/29 00:27:52;;;;;;;2.67;2.47;;;20.00;99.90;;;;;;4883819;29;20411;-77
2021/06/29 00:30:18;;;;;;;2.40;2.30;;;20.00;99.90;;;;;;4900813;29;20449;-78
2021/06/29 00:32:44;;;;;;;2.85;2.38;;;20.00;99.90;;;;;;4914132;29;20416;-82
2021/06/29 00:35:10;;;;;;;2.53;2.33;;;19.90;99.90;;;;;;4877506;29;20413;-78
2021/06/29 00:37:36;;;;;;;2.80;2.60;;;19.80;99.90;;;;;;4887165;29;20400;-77
2021/06/29 00:40:05;;;;;;;2.63;2.42;;;19.80;99.90;;;;;;4896470;29;20411;-77
2021/06/29 00:42:31;;;;;;;2.80;2.60;;;19.80;99.90;;;;;;4896856;29;20399;-78
2021/06/29 00:44:57;;;;;;;2.83;2.63;;;19.70;99.90;;;;;;4890303;29;20399;-77
2021/06/29 00:47:22;;;;;;;2.85;2.65;;;19.60;99.90;;;;;;4901231;29;20472;-76
2021/06/29 00:49:48;;;;;;;2.80;2.60;;;19.60;99.90;;;;;;4915763;29;20410;-77
2021/06/29 00:52:14;;;;;;;3.00;2.55;;;19.50;99.90;;;;;;4885576;29;20477;-78
2021/06/29 00:54:40;;;;;;;2.90;2.70;;;19.50;99.90;;;;;;4892392;29;20440;-76
2021/06/29 00:57:10;;;;;;;3.00;2.80;;;19.50;99.90;;;;;;4866724;29;20404;-77
2021/06/29 00:59:37;;;;;;;3.10;2.90;;;19.40;99.90;;;;;;4876483;29;20425;-77
2021/06/29 01:02:02;;;;;;;2.70;2.50;;;19.40;99.90;;;;;;4904800;29;20419;-77
2021/06/29 01:04:28;;;;;;;3.10;2.80;;;19.40;99.90;;;;;;4883154;29;20423;-77
2021/06/29 01:06:54;;;;;;;3.90;2.83;;;19.40;99.90;;;;;;4881035;29;20406;-77
2021/06/29 01:09:20;;;;;;;2.63;2.43;;;19.40;99.90;;;;;;4894801;29;20442;-80
2021/06/29 01:11:46;;;;;;;2.78;2.58;;;19.40;99.90;;;;;;4913340;29;20458;-80
2021/06/29 01:14:12;;;;;;;3.50;2.75;;;19.40;99.90;;;;;;4892822;29;20421;-85
2021/06/29 01:16:38;;;;;;;3.35;3.05;;;19.30;99.90;;;;;;4917688;29;20395;-86
2021/06/29 01:19:04;;;;;;;2.83;2.63;;;19.30;99.90;;;;;;4906461;29;20413;-87
2021/06/29 01:21:35;;;;;;;2.70;2.50;;;19.30;99.90;;;;;;4943375;29;20432;-85
2021/06/29 01:24:02;;;;;;;3.00;2.80;;;19.30;99.90;;;;;;4895316;29;20401;-85
2021/06/29 01:26:31;;;;;;;3.00;2.80;;;19.30;99.90;;;;;;4908747;29;20382;-77
2021/06/29 01:31:22;;;;;;;3.33;3.00;;;19.20;99.90;;;;;;4879252;29;20405;-82
2021/06/29 01:33:48;;;;;;;2.70;2.50;;;19.10;99.90;;;;;;4919183;29;21006;-77
2021/06/29 01:36:18;;;;;;;2.88;2.67;;;19.10;99.90;;;;;;4883140;29;20431;-77
2021/06/29 01:38:44;;;;;;;3.07;2.87;;;19.10;99.90;;;;;;4895128;29;20916;-78
2021/06/29 01:41:12;;;;;;;2.88;2.67;;;19.10;99.90;;;;;;4879562;29;20405;-76
2021/06/29 01:43:44;;;;;;;2.90;2.60;;;19.10;99.90;;;;;;4886949;29;20396;-78
2021/06/29 01:46:10;;;;;;;2.75;2.55;;;19.00;99.90;;;;;;4904590;29;20408;-77
2021/06/29 01:48:36;;;;;;;2.90;2.70;;;19.00;99.90;;;;;;4901422;29;20404;-78
2021/06/29 01:51:01;;;;;;;3.00;2.80;;;19.00;99.90;;;;;;4862895;29;20418;-78
2021/06/29 01:53:27;;;;;;;2.60;2.40;;;18.90;99.90;;;;;;4881815;29;20437;-79
2021/06/29 01:55:53;;;;;;;2.70;2.50;;;18.90;99.90;;;;;;4912438;29;20418;-77
2021/06/29 01:58:25;;;;;;;2.80;2.60;;;18.80;99.90;;;;;;4871804;29;20415;-78
2021/06/29 02:00:51;;;;;;;2.55;2.35;;;18.80;99.90;;;;;;4889163;29;20413;-78
2021/06/29 02:03:16;;;;;;;2.77;2.57;;;18.80;99.90;;;;;;4903506;29;20408;-76
2021/06/29 02:05:42;;;;;;;3.30;3.00;;;18.80;99.90;;;;;;4895715;29;20496;-77
2021/06/29 02:08:08;;;;;;;2.80;2.60;;;18.80;99.90;;;;;;4882027;29;20913;-77
2021/06/29 02:10:33;;;;;;;3.22;2.92;;;18.80;99.90;;;;;;4874909;29;20921;-77
2021/06/29 02:13:00;;;;;;;2.90;2.70;;;18.80;99.90;;;;;;4891541;29;21153;-78
2021/06/29 02:15:26;;;;;;;2.90;2.60;;;18.80;99.90;;;;;;4879146;29;20455;-80
2021/06/29 02:17:51;;;;;;;3.05;2.85;;;18.70;99.90;;;;;;4914900;29;20587;-76
2021/06/29 02:20:17;;;;;;;3.07;2.83;;;18.70;99.90;;;;;;4893817;29;20748;-76
2021/06/29 02:22:45;;;;;;;2.97;2.78;;;18.70;99.90;;;;;;4885630;29;20397;-77
2021/06/29 02:25:11;;;;;;;3.03;2.83;;;18.60;99.90;;;;;;4872178;29;20400;-79
2021/06/29 02:27:37;;;;;;;3.03;2.80;;;18.60;99.90;;;;;;4888653;29;20416;-76
2021/06/29 02:30:03;;;;;;;2.90;2.70;;;18.50;99.90;;;;;;4888882;29;20403;-83
2021/06/29 02:32:29;;;;;;;2.80;2.53;;;18.50;99.90;;;;;;4920336;29;20454;-76
2021/06/29 02:34:54;;;;;;;3.03;2.83;;;18.40;99.90;;;;;;4898283;29;20420;-78
2021/06/29 02:37:20;;;;;;;2.88;2.67;;;18.40;99.90;;;;;;4877025;29;20403;-80
2021/06/29 02:39:46;;;;;;;3.13;2.83;;;18.40;99.90;;;;;;4861173;29;20415;-76
2021/06/29 02:42:12;;;;;;;3.55;3.25;;;18.40;99.90;;;;;;4910137;29;20401;-77
2021/06/29 02:44:38;;;;;;;3.33;3.03;;;18.40;99.90;;;;;;4887980;29;20398;-76
2021/06/29 02:47:03;;;;;;;3.00;2.70;;;18.40;99.90;;;;;;4891800;29;21003;-78
2021/06/29 02:49:29;;;;;;;2.80;2.60;;;18.50;99.90;;;;;;4908806;29;20439;-77
2021/06/29 02:51:55;;;;;;;3.00;2.80;;;18.40;99.90;;;;;;4884294;29;20633;-80
2021/06/29 02:54:21;;;;;;;3.10;2.90;;;18.40;99.90;;;;;;4895978;29;20937;-77
2021/06/29 02:56:46;;;;;;;3.40;3.10;;;18.50;99.90;;;;;;4853644;29;20431;-77
2021/06/29 02:59:14;;;;;;;3.10;2.80;;;18.50;99.90;;;;;;4885458;29;20423;-77
2021/06/29 03:01:43;;;;;;;3.15;2.90;;;18.50;99.90;;;;;;4894821;29;20515;-79
2021/06/29 03:04:09;;;;;;;3.47;3.17;;;18.40;99.90;;;;;;4881081;29;20401;-76
2021/06/29 03:06:35;;;;;;;2.90;2.70;;;18.40;99.90;;;;;;4896243;29;20846;-75
2021/06/29 03:09:00;;;;;;;2.90;2.70;;;18.40;99.90;;;;;;4876926;29;20469;-77
2021/06/29 03:11:27;;;;;;;3.20;3.00;;;18.40;99.90;;;;;;4915694;29;20500;-79
2021/06/29 03:13:53;;;;;;;2.97;2.67;;;18.40;99.90;;;;;;4883535;29;20506;-76
2021/06/29 03:16:18;;;;;;;2.90;2.67;;;18.40;99.90;;;;;;4881992;29;20491;-77
2021/06/29 03:18:44;;;;;;;3.13;2.93;;;18.30;99.90;;;;;;4874125;29;20881;-79
2021/06/29 03:21:10;;;;;;;3.10;2.90;;;18.30;99.90;;;;;;4881688;29;20400;-77
2021/06/29 03:23:36;;;;;;;3.47;3.17;;;18.30;99.90;;;;;;4871234;29;20408;-77
2021/06/29 03:26:02;;;;;;;3.10;2.90;;;18.30;99.90;;;;;;4905846;29;20458;-77
2021/06/29 03:28:28;;;;;;;3.00;2.80;;;18.30;99.90;;;;;;4878436;29;20433;-77
2021/06/29 03:30:54;;;;;;;3.28;2.97;;;18.20;99.90;;;;;;4906355;29;21226;-77
2021/06/29 03:33:19;;;;;;;2.95;2.75;;;18.20;99.90;;;;;;4901193;29;20435;-77
2021/06/29 03:35:45;;;;;;;3.07;2.87;;;18.30;99.90;;;;;;4884591;29;20430;-77
2021/06/29 03:38:10;;;;;;;3.40;3.10;;;18.20;99.90;;;;;;4892609;29;20419;-79
2021/06/29 03:40:36;;;;;;;4.67;3.77;;;18.30;99.90;;;;;;4905370;29;20925;-76
2021/06/29 03:43:02;;;;;;;3.30;3.00;;;18.30;99.90;;;;;;4899560;29;21249;-77
2021/06/29 03:45:27;;;;;;;3.22;2.92;;;18.40;99.90;;;;;;4870098;29;20792;-80
2021/06/29 03:47:53;;;;;;;3.70;3.40;;;18.40;99.90;;;;;;4883394;29;20423;-77
2021/06/29 03:50:19;;;;;;;3.58;3.28;;;18.40;99.90;;;;;;4906567;29;20420;-88
2021/06/29 03:52:44;;;;;;;3.63;3.33;;;18.50;99.90;;;;;;4908614;29;20416;-77
2021/06/29 03:55:10;;;;;;;3.25;3.05;;;18.50;99.90;;;;;;4879833;29;20391;-77
2021/06/29 03:57:36;;;;;;;3.38;3.08;;;18.50;99.90;;;;;;4887310;29;20417;-80
2021/06/29 04:00:04;;;;;;;3.38;3.08;;;18.60;99.90;;;;;;4886171;29;20419;-78
2021/06/29 04:02:30;;;;;;;3.10;2.90;;;18.60;99.90;;;;;;4889368;29;21114;-78
2021/06/29 04:04:56;;;;;;;3.17;2.97;;;18.70;99.90;;;;;;4898979;29;20495;-81
2021/06/29 04:07:22;;;;;;;3.43;3.13;;;18.70;99.90;;;;;;4883404;29;20409;-78
2021/06/29 04:09:47;;;;;;;3.47;3.17;;;18.70;99.90;;;;;;4912659;29;20422;-76
2021/06/29 04:12:14;;;;;;;3.40;3.10;;;18.80;99.90;;;;;;4863420;29;20506;-77
2021/06/29 04:14:39;;;;;;;3.40;3.10;;;18.80;99.90;;;;;;4895884;29;20917;-77
2021/06/29 04:17:05;;;;;;;3.03;2.83;;;18.90;99.90;;;;;;4879740;29;20407;-77
2021/06/29 04:19:31;;;;;;;3.60;3.30;;;19.00;99.90;;;;;;4895502;29;20417;-77
2021/06/29 04:21:56;;;;;;;3.37;3.10;;;19.00;99.90;;;;;;4903310;29;20402;-79
2021/06/29 04:24:22;;;;;;;3.05;2.85;;;19.10;99.90;;;;;;4861720;29;21475;-79
2021/06/29 04:26:48;;;;;;;3.17;2.90;;;19.20;99.90;;;;;;4888314;29;20393;-77
2021/06/29 04:29:13;;;;;;;3.30;3.00;;;19.30;99.90;;;;;;4883288;29;20758;-78
2021/06/29 04:31:39;;;;;;;3.70;3.40;;;19.50;99.90;;;;;;4919372;29;20432;-78
2021/06/29 04:34:04;;;;;;;3.73;3.43;;;19.60;99.90;;;;;;4908393;29;20422;-81
2021/06/29 04:36:30;;;;;;;3.90;3.47;;;19.80;99.90;;;;;;4909502;29;20414;-80
2021/06/29 04:38:56;;;;;;;4.13;3.60;;;19.90;99.90;;;;;;4899221;29;20408;-77
2021/06/29 04:41:21;;;;;;;3.27;3.00;;;20.00;99.90;;;;;;4898655;29;20427;-79
2021/06/29 04:43:47;;;;;;;3.42;3.13;;;20.20;99.90;;;;;;4867855;29;20492;-77
2021/06/29 04:46:13;;;;;;;3.50;3.22;;;20.30;99.90;;;;;;4886033;29;20401;-78
2021/06/29 04:48:40;;;;;;;3.30;3.00;;;20.50;99.90;;;;;;4891000;29;20410;-80
2021/06/29 04:51:06;;;;;;;3.53;3.22;;;20.60;99.90;;;;;;4885012;29;20435;-77
2021/06/29 04:53:32;;;;;;;2.70;2.50;;;20.70;99.90;;;;;;4852655;29;20419;-78
2021/06/29 04:55:58;;;;;;;3.10;2.90;;;20.80;99.90;;;;;;4910926;29;20400;-77
2021/06/29 04:58:23;;;;;;;3.63;3.33;;;20.90;99.90;;;;;;4899428;29;20422;-80
2021/06/29 05:00:50;;;;;;;3.45;3.22;;;21.00;99.90;;;;;;4881492;29;20447;-79
2021/06/29 05:03:16;;;;;;;2.90;2.70;;;21.00;99.90;;;;;;4916520;29;20486;-78
2021/06/29 05:05:41;;;;;;;3.60;3.30;;;21.00;99.90;;;;;;4902603;29;20448;-81
2021/06/29 05:08:07;;;;;;;3.00;2.80;;;21.10;99.90;;;;;;4880980;29;20445;-78
2021/06/29 05:10:33;;;;;;;3.60;3.30;;;21.20;99.90;;;;;;4882458;29;20408;-78
2021/06/29 05:12:59;;;;;;;4.70;3.42;;;21.20;99.90;;;;;;4880768;29;20734;-83
2021/06/29 05:15:25;;;;;;;3.10;2.90;;;21.30;99.90;;;;;;4877440;29;20424;-83
2021/06/29 05:17:50;;;;;;;3.25;3.05;;;21.40;99.90;;;;;;4877988;29;20426;-80
2021/06/29 05:20:16;;;;;;;3.33;3.03;;;21.60;99.90;;;;;;4871041;29;20519;-80
2021/06/29 05:22:42;;;;;;;3.40;3.10;;;21.70;99.90;;;;;;4909929;29;20830;-81
2021/06/29 05:25:08;;;;;;;3.60;3.30;;;21.80;99.90;;;;;;4894700;29;20419;-81
2021/06/29 05:27:41;;;;;;;3.60;3.30;;;21.90;99.90;;;;;;4896957;29;20399;-79
2021/06/29 05:30:07;;;;;;;3.08;2.88;;;22.00;99.90;;;;;;4912463;29;20433;-82
2021/06/29 05:32:33;;;;;;;4.87;3.07;;;22.10;99.90;;;;;;4898488;29;20406;-81
2021/06/29 05:34:59;;;;;;;3.45;3.15;;;22.20;99.90;;;;;;4895191;29;20506;-82
2021/06/29 05:37:24;;;;;;;3.30;3.00;;;22.30;99.90;;;;;;4884726;29;20476;-78
2021/06/29 05:39:50;;;;;;;3.40;3.10;;;22.50;99.90;;;;;;4881970;29;20487;-79
2021/06/29 05:42:15;;;;;;;3.28;2.97;;;22.60;99.90;;;;;;4874850;29;20400;-79
2021/06/29 05:44:41;;;;;;;3.03;2.83;;;22.80;99.90;;;;;;4893314;29;20445;-81
2021/06/29 05:47:09;;;;;;;3.27;2.97;;;22.90;99.90;;;;;;4877590;29;20401;-80
2021/06/29 05:49:36;;;;;;;2.90;2.70;;;23.10;99.90;;;;;;4886978;29;20414;-84
2021/06/29 05:52:06;;;;;;;3.10;2.80;;;23.40;99.90;;;;;;4911509;29;20510;-82
2021/06/29 05:54:32;;;;;;;2.78;2.58;;;23.30;99.90;;;;;;4894443;29;20422;-82
2021/06/29 05:56:58;;;;;;;3.25;3.05;;;23.50;99.90;;;;;;4896444;29;20420;-82
2021/06/29 05:59:27;;;;;;;4.40;3.27;;;23.70;99.90;;;;;;4882017;29;20421;-82
2021/06/29 06:01:54;;;;;;;3.08;2.80;;;23.80;99.90;;;;;;4883916;29;20461;-80
2021/06/29 06:04:21;;;;;;;2.97;2.73;;;23.80;99.90;;;;;;4900347;29;20407;-80
2021/06/29 06:06:47;;;;;;;3.13;2.90;;;23.70;99.90;;;;;;4882704;29;22124;-81
2021/06/29 06:09:13;;;;;;;3.58;3.20;;;23.90;99.90;;;;;;4880811;29;20928;-82
2021/06/29 06:11:39;;;;;;;3.28;2.85;;;24.00;99.90;;;;;;4895963;29;20921;-82
2021/06/29 06:14:05;;;;;;;3.50;3.20;;;24.00;99.90;;;;;;4882264;29;20419;-82
2021/06/29 06:16:31;;;;;;;3.33;3.13;;;24.20;99.90;;;;;;4880545;29;20419;-78
2021/06/29 06:18:57;;;;;;;3.42;3.13;;;24.10;99.90;;;;;;4902120;29;20829;-80
2021/06/29 06:21:23;;;;;;;3.30;3.00;;;24.30;99.90;;;;;;4867064;29;20443;-80
2021/06/29 06:23:49;;;;;;;2.97;2.78;;;24.40;99.90;;;;;;4881039;29;20430;-79
2021/06/29 06:26:15;;;;;;;2.93;2.73;;;24.50;99.90;;;;;;4896862;29;20845;-81
2021/06/29 06:28:41;;;;;;;3.38;3.08;;;24.60;99.90;;;;;;4892126;29;21008;-81
2021/06/29 06:31:07;;;;;;;3.13;2.83;;;24.80;99.90;;;;;;4893317;29;20435;-81
2021/06/29 06:33:33;;;;;;;4.20;3.37;;;24.80;99.90;;;;;;4920206;29;20412;-81
2021/06/29 06:35:59;;;;;;;3.15;2.88;;;24.80;99.90;;;;;;4890294;29;20406;-81
2021/06/29 06:38:25;;;;;;;3.17;2.85;;;24.70;99.90;;;;;;4893422;29;20937;-80
2021/06/29 06:40:51;;;;;;;3.25;2.97;;;24.90;99.90;;;;;;4877686;29;20418;-80
2021/06/29 06:43:17;;;;;;;2.85;2.60;;;24.80;99.90;;;;;;4905712;29;20409;-79
2021/06/29 06:45:45;;;;;;;2.28;2.08;;;25.00;99.90;;;;;;4902509;29;20924;-81
2021/06/29 06:48:13;;;;;;;5.47;3.00;;;25.10;99.90;;;;;;4907157;29;20403;-81
2021/06/29 06:50:39;;;;;;;2.57;2.37;;;25.20;99.90;;;;;;4898751;29;20475;-80
2021/06/29 06:53:05;;;;;;;2.50;2.40;;;25.40;99.90;;;;;;4870621;29;20514;-79
2021/06/29 06:55:31;;;;;;;3.43;3.13;;;25.40;99.90;;;;;;4891053;29;20415;-80
2021/06/29 06:57:57;;;;;;;5.63;5.05;;;25.30;99.90;;;;;;4898322;29;20452;-80
2021/06/29 07:00:24;;;;;;;2.95;2.67;;;25.30;99.90;;;;;;4883925;29;20442;-80
2021/06/29 07:02:50;;;;;;;2.92;2.72;;;25.20;99.90;;;;;;4915528;29;20500;-80
2021/06/29 07:05:16;;;;;;;2.85;2.63;;;25.40;99.90;;;;;;4913212;29;20399;-79
2021/06/29 07:07:42;;;;;;;3.07;2.83;;;25.70;99.90;;;;;;4898359;29;20750;-79
2021/06/29 07:10:08;;;;;;;3.00;2.75;;;25.60;99.90;;;;;;4865765;29;20409;-79
2021/06/29 07:16:01;;;;;;;3.10;2.80;;;25.90;99.90;;;;;;4906318;29;20426;-82
2021/06/29 07:18:29;;;;;;;2.88;2.65;;;26.30;99.90;;;;;;4887592;29;20459;-81
2021/06/29 07:21:00;;;;;;;2.60;2.40;;;26.60;99.90;;;;;;4930368;28;20395;-86
2021/06/29 07:23:51;;;;;;;8.27;3.42;;;26.80;99.90;;;;;;4929333;28;20402;-87
2021/06/29 07:26:17;;;;;;;8.40;4.50;;;27.30;99.90;;;;;;4922181;28;20399;-85
2021/06/29 07:28:42;;;;;;;4.15;3.00;;;27.40;99.90;;;;;;4921095;28;20406;-85
2021/06/29 07:31:09;;;;;;;3.10;2.90;;;27.60;99.90;;;;;;4907311;28;20415;-87
2021/06/29 07:33:35;;;;;;;2.73;2.53;;;27.60;99.90;;;;;;4931712;29;20411;-88
2021/06/29 07:36:01;;;;;;;3.35;3.05;;;27.60;99.90;;;;;;4938553;28;20410;-86
2021/06/29 07:38:27;;;;;;;6.03;3.80;;;28.10;99.90;;;;;;4920948;28;20396;-87
2021/06/29 07:40:52;;;;;;;5.68;3.45;;;28.10;99.90;;;;;;4927138;28;20390;-87
2021/06/29 07:43:20;;;;;;;3.65;3.33;;;28.50;99.90;;;;;;4937340;28;20550;-88
2021/06/29 07:45:45;;;;;;;2.80;2.60;;;28.70;99.90;;;;;;4934977;28;20397;-87
2021/06/29 07:48:11;;;;;;;3.07;2.87;;;28.90;99.90;;;;;;4907768;28;20389;-87
2021/06/29 07:50:37;;;;;;;3.10;2.60;;;29.00;99.90;;;;;;4926141;28;20406;-89
2021/06/29 07:53:03;;;;;;;2.63;2.42;;;28.90;99.90;;;;;;4941879;28;20393;-87
2021/06/29 07:55:29;;;;;;;2.90;2.70;;;28.90;99.90;;;;;;4939320;28;20416;-89
2021/06/29 07:57:58;;;;;;;3.00;2.80;;;29.40;99.90;;;;;;4935690;28;20390;-85
2021/06/29 08:00:24;;;;;;;2.90;2.67;;;29.40;99.90;;;;;;4924030;28;20409;-90
2021/06/29 08:02:50;;;;;;;2.95;2.75;;;29.50;99.90;;;;;;4920429;29;20395;-85
2021/06/29 08:05:15;;;;;;;3.13;2.63;;;29.50;99.90;;;;;;4918338;28;20393;-87
2021/06/29 08:07:41;;;;;;;2.90;2.70;;;29.90;99.90;;;;;;4921667;29;20397;-87
2021/06/29 08:10:08;;;;;;;2.70;2.50;;;30.00;98.30;;;;;;4923186;28;20787;-88
2021/06/29 08:12:33;;;;;;;2.67;2.47;;;30.20;99.90;;;;;;4929640;29;20402;-84
2021/06/29 08:14:59;;;;;;;3.20;2.90;;;30.40;99.90;;;;;;4924414;29;20475;-85
2021/06/29 08:17:26;;;;;;;3.10;2.80;;;30.80;97.50;;;;;;4940856;29;20418;-83
2021/06/29 08:19:52;;;;;;;2.75;2.55;;;30.80;98.60;;;;;;4925035;29;20725;-83
2021/06/29 08:22:18;;;;;;;2.57;2.37;;;30.90;96.60;;;;;;4933612;28;20398;-85
2021/06/29 08:24:45;;;;;;;2.40;2.20;;;30.90;95.20;;;;;;4908519;29;20414;-85
2021/06/29 08:27:12;;;;;;;2.90;2.60;;;30.90;95.50;;;;;;4910119;28;20382;-84
2021/06/29 08:29:38;;;;;;;2.72;2.55;;;31.10;93.70;;;;;;4915089;29;21048;-87
2021/06/29 08:32:04;;;;;;;2.70;2.50;;;31.10;94.50;;;;;;4917896;29;20425;-81
2021/06/29 08:34:29;;;;;;;2.33;2.13;;;31.40;92.10;;;;;;4888495;29;20504;-83
2021/06/29 08:36:55;;;;;;;2.70;2.50;;;31.60;93.80;;;;;;4926020;28;20461;-80
2021/06/29 08:39:21;;;;;;;3.40;2.50;;;31.90;92.50;;;;;;4930849;29;20397;-79
2021/06/29 08:41:47;;;;;;;2.90;2.43;;;32.10;90.70;;;;;;4899767;29;20439;-78
2021/06/29 08:44:15;;;;;;;2.63;2.42;;;32.20;90.70;;;;;;4899160;28;20413;-77
2021/06/29 08:46:41;;;;;;;2.67;2.47;;;32.30;90.00;;;;;;4908475;28;20408;-77
2021/06/29 08:49:07;;;;;;;2.40;2.20;;;32.40;91.40;;;;;;4912825;29;20755;-78
2021/06/29 08:51:34;;;;;;;2.30;2.15;;;32.30;89.80;;;;;;4896146;29;20410;-77
2021/06/29 08:54:01;;;;;;;4.10;2.20;;;32.60;91.50;;;;;;4899008;29;20417;-78
2021/06/29 08:56:26;;;;;;;3.17;2.87;;;33.10;91.40;;;;;;4904840;29;20465;-77
2021/06/29 08:58:52;;;;;;;3.00;2.78;;;33.20;89.60;;;;;;4892053;29;20879;-78
2021/06/29 09:01:18;;;;;;;3.05;2.40;;;33.20;88.30;;;;;;4908009;28;20404;-78
2021/06/29 09:03:43;;;;;;;2.70;2.50;;;33.40;89.80;;;;;;4913159;29;20445;-82
2021/06/29 09:06:09;;;;;;;2.53;2.33;;;33.20;86.70;;;;;;4927033;28;20431;-85
2021/06/29 09:08:39;;;;;;;2.57;2.37;;;33.30;89.50;;;;;;4916425;29;20473;-83
2021/06/29 09:11:10;;;;;;;2.80;2.60;;;33.30;88.00;;;;;;4890024;28;20406;-83
2021/06/29 09:13:36;;;;;;;2.90;2.70;;;33.40;87.80;;;;;;4934782;29;20411;-84
2021/06/29 09:16:02;;;;;;;2.63;2.42;;;33.60;88.20;;;;;;4900506;29;20395;-82
2021/06/29 09:18:29;;;;;;;3.00;2.70;;;33.50;80.10;;;;;;4918277;29;20465;-83
2021/06/29 09:20:56;;;;;;;2.60;2.40;;;33.50;82.00;;;;;;4918442;29;21051;-83
2021/06/29 09:23:28;;;;;;;2.80;2.60;;;33.50;80.60;;;;;;4932727;28;20465;-83
2021/06/29 09:25:59;;;;;;;2.72;2.53;;;33.20;84.20;;;;;;4935438;29;20813;-83
2021/06/29 09:28:33;;;;;;;2.47;2.27;;;33.40;83.90;;;;;;4916369;29;20455;-83
2021/06/29 09:31:14;;;;;;;3.60;2.93;;;33.40;84.40;;;;;;4931976;28;26390;-84
2021/06/29 09:33:44;;;;;;;2.78;2.58;;;33.50;84.70;;;;;;4902954;29;20426;-83
2021/06/29 09:36:14;;;;;;;2.87;2.57;;;33.80;82.00;;;;;;4911347;28;20398;-84
2021/06/29 09:38:41;;;;;;;2.50;2.30;;;34.00;80.10;;;;;;4936808;28;20467;-82
2021/06/29 09:41:16;;;;;;;2.50;2.30;;;33.90;80.00;;;;;;4937746;28;20392;-82
2021/06/29 09:43:46;;;;;;;3.47;2.90;;;33.90;80.80;;;;;;4953146;28;20442;-87
2021/06/29 09:46:13;;;;;;;2.67;2.47;;;34.00;80.90;;;;;;4921913;28;20400;-86
2021/06/29 09:48:41;;;;;;;3.45;3.15;;;34.30;84.40;;;;;;4935926;28;20474;-84
2021/06/29 09:51:20;;;;;;;3.03;2.77;;;34.40;80.70;;;;;;4903848;29;20397;-83
2021/06/29 09:53:47;;;;;;;2.58;2.38;;;34.30;77.50;;;;;;4935551;28;20421;-83
2021/06/29 09:56:15;;;;;;;2.42;2.22;;;34.50;76.60;;;;;;4903496;29;20393;-83
2021/06/29 09:58:42;;;;;;;3.28;2.95;;;34.40;77.50;;;;;;4918712;28;20410;-86
2021/06/29 10:01:08;;;;;;;2.92;2.22;;;34.30;76.00;;;;;;4912300;28;20451;-83
2021/06/29 10:03:38;;;;;;;2.30;2.20;;;34.50;75.40;;;;;;4932306;29;20395;-86
2021/06/29 10:06:17;;;;;;;2.40;2.20;;;34.80;74.70;;;;;;4903911;29;20408;-82
2021/06/29 10:08:47;;;;;;;5.07;2.50;;;34.60;72.30;;;;;;4917700;28;20406;-85
2021/06/29 10:11:32;;;;;;;2.78;2.30;;;34.70;70.60;;;;;;4918156;29;20418;-85
2021/06/29 10:14:06;;;;;;;2.65;2.45;;;34.50;72.80;;;;;;4913305;28;20432;-84
2021/06/29 10:16:39;;;;;;;2.45;2.25;;;34.40;72.20;;;;;;4894129;29;20425;-86
2021/06/29 10:21:40;;;;;;;2.58;2.38;;;34.00;72.90;;;;;;4918512;29;20418;-84
2021/06/29 10:24:07;;;;;;;2.40;2.20;;;34.10;74.00;;;;;;4915173;28;20433;-85
2021/06/29 10:26:34;;;;;;;2.43;2.23;;;34.40;73.30;;;;;;4897397;29;20419;-83
2021/06/29 10:29:01;;;;;;;2.40;2.20;;;34.30;72.90;;;;;;4882923;29;20529;-86
2021/06/29 10:31:28;;;;;;;2.78;2.58;;;34.40;72.00;;;;;;4915606;29;20778;-85
2021/06/29 10:33:57;;;;;;;2.47;2.30;;;34.50;74.60;;;;;;4886738;29;20429;-84
2021/06/29 10:36:24;;;;;;;2.78;2.58;;;34.60;75.10;;;;;;4892207;28;20471;-84
2021/06/29 10:38:50;;;;;;;3.63;2.78;;;34.80;75.00;;;;;;4904038;29;20405;-86
2021/06/29 10:41:16;;;;;;;3.35;3.05;;;34.90;76.90;;;;;;4919623;28;20406;-84
2021/06/29 10:43:42;;;;;;;2.97;2.77;;;34.90;75.30;;;;;;4896242;29;20509;-85
2021/06/29 10:46:31;;;;;;;2.88;2.67;;;34.90;74.80;;;;;;4899337;28;20397;-84
2021/06/29 10:48:57;;;;;;;2.75;2.55;;;35.00;73.50;;;;;;4909114;28;20405;-85
2021/06/29 10:51:38;;;;;;;2.90;2.60;;;35.10;74.90;;;;;;4904387;28;20407;-85
2021/06/29 10:54:04;;;;;;;2.83;2.42;;;35.40;70.40;;;;;;4903261;29;20426;-86
2021/06/29 10:56:54;;;;;;;2.40;2.30;;;35.00;72.70;;;;;;4901007;29;20415;-83
2021/06/29 10:59:37;;;;;;;3.08;2.70;;;35.50;75.60;;;;;;4921427;29;21111;-86
2021/06/29 11:02:03;;;;;;;3.33;2.80;;;35.70;73.90;;;;;;4911899;29;20396;-84
2021/06/29 11:04:47;;;;;;;2.90;2.70;;;35.70;72.50;;;;;;4917608;28;20393;-85
2021/06/29 11:07:45;;;;;;;2.85;2.65;;;35.90;73.70;;;;;;4966234;28;20396;-86
2021/06/29 11:10:30;;;;;;;4.07;2.60;;;36.00;70.60;;;;;;4938760;28;20425;-85
2021/06/29 11:13:00;;;;;;;2.63;2.42;;;36.00;71.20;;;;;;4921690;29;20410;-83
2021/06/29 11:15:39;;;;;;;2.75;2.55;;;35.80;71.90;;;;;;4889388;29;20414;-84
2021/06/29 11:18:05;;;;;;;2.80;2.60;;;35.90;74.30;;;;;;4936525;28;21136;-87
2021/06/29 11:20:53;;;;;;;3.20;2.55;;;36.00;73.00;;;;;;4933654;28;20410;-84
2021/06/29 11:23:29;;;;;;;2.85;2.65;;;36.00;71.00;;;;;;4909613;29;20783;-83
2021/06/29 11:26:16;;;;;;;2.63;2.42;;;35.90;68.30;;;;;;4929109;28;20412;-86
2021/06/29 11:28:50;;;;;;;2.50;2.40;;;36.30;72.60;;;;;;4923273;29;20406;-84
2021/06/29 11:31:31;;;;;;;3.03;2.67;;;36.60;69.60;;;;;;4923849;28;20399;-85
2021/06/29 11:34:03;;;;;;;3.37;2.97;;;36.60;67.50;;;;;;4937421;28;20468;-85
2021/06/29 11:36:29;;;;;;;2.95;2.72;;;36.60;68.10;;;;;;4937331;28;20406;-84
2021/06/29 11:39:17;;;;;;;5.20;3.08;;;36.70;68.60;;;;;;4951580;28;20413;-84
2021/06/29 11:41:50;;;;;;;3.00;2.80;;;36.60;70.60;;;;;;4930054;29;20919;-84
2021/06/29 11:44:16;;;;;;;2.90;2.70;;;36.40;68.20;;;;;;4904872;28;20963;-85
2021/06/29 11:47:01;;;;;;;2.70;2.50;;;36.30;68.90;;;;;;4920946;28;20398;-84
2021/06/29 11:50:00;;;;;;;2.90;2.70;;;36.30;69.70;;;;;;4933627;29;20411;-85
2021/06/29 11:52:32;;;;;;;4.97;2.90;;;36.10;68.50;;;;;;4936567;28;20434;-85
2021/06/29 11:55:07;;;;;;;3.40;2.80;;;36.40;69.60;;;;;;4902787;29;20415;-86
2021/06/29 11:57:38;;;;;;;3.20;2.90;;;36.50;68.40;;;;;;4944267;28;20489;-87
2021/06/29 12:00:25;;;;;;;3.10;2.80;;;36.50;68.70;;;;;;4913969;28;20417;-84
2021/06/29 12:02:55;;;;;;;3.05;2.85;;;36.50;68.40;;;;;;4932214;29;20408;-84
2021/06/29 12:05:28;;;;;;;3.50;3.20;;;36.70;68.50;;;;;;4921142;29;20414;-84
2021/06/29 12:07:55;;;;;;;3.63;2.90;;;36.20;68.60;;;;;;4933976;28;20412;-85
2021/06/29 12:10:34;;;;;;;3.45;3.15;;;36.50;71.00;;;;;;4905848;28;20531;-86
2021/06/29 12:13:04;;;;;;;2.90;2.70;;;36.30;69.10;;;;;;4918635;28;20455;-83
2021/06/29 12:15:40;;;;;;;3.38;3.13;;;36.50;71.10;;;;;;4915464;28;20411;-85
2021/06/29 12:18:17;;;;;;;3.05;2.85;;;36.50;70.60;;;;;;4918346;28;20402;-86
2021/06/29 12:20:53;;;;;;;3.00;2.80;;;36.50;68.20;;;;;;4924148;29;20409;-84
2021/06/29 12:23:23;;;;;;;3.67;2.90;;;36.90;68.80;;;;;;4910257;28;20407;-85
2021/06/29 12:25:52;;;;;;;3.05;2.80;;;37.20;68.60;;;;;;4918665;29;20418;-86
2021/06/29 12:28:25;;;;;;;4.07;3.10;;;37.70;65.80;;;;;;4915684;29;20441;-89
2021/06/29 12:30:58;;;;;;;3.20;2.92;;;38.10;64.70;;;;;;4925902;28;20400;-88
2021/06/29 12:33:34;;;;;;;3.20;3.00;;;37.60;64.30;;;;;;4934172;29;20988;-85
2021/06/29 12:36:01;;;;;;;3.50;3.20;;;37.40;66.80;;;;;;4920868;29;20477;-85
2021/06/29 12:38:28;;;;;;;4.15;2.80;;;37.10;67.10;;;;;;4935430;28;20390;-87
2021/06/29 12:40:57;;;;;;;3.67;3.23;;;37.00;67.60;;;;;;4910726;28;20777;-86
2021/06/29 12:43:32;;;;;;;3.53;3.22;;;37.20;64.10;;;;;;4906745;28;20410;-85
2021/06/29 12:45:58;;;;;;;3.25;3.03;;;36.90;66.40;;;;;;4915291;29;21342;-85
2021/06/29 12:48:24;;;;;;;4.07;3.70;;;36.80;66.30;;;;;;4915863;29;20794;-84
2021/06/29 12:51:04;;;;;;;3.60;3.30;;;36.70;64.10;;;;;;4917125;29;20403;-85
2021/06/29 12:53:30;;;;;;;3.30;3.00;;;36.30;67.30;;;;;;4931810;28;20426;-77
2021/06/29 12:56:16;;;;;;;3.40;3.10;;;36.50;66.10;;;;;;4916403;29;20436;-78
2021/06/29 12:58:46;;;;;;;3.50;3.20;;;36.30;70.00;;;;;;4926340;29;20402;-85
2021/06/29 13:01:12;;;;;;;3.10;2.80;;;36.30;65.30;;;;;;4914630;29;20401;-85